createdAt,value
2022-08-25T00:00:15.006Z,101332.06
2022-08-25T00:02:41.402Z,101329.34
2022-08-25T00:05:23.750Z,101332.28
2022-08-25T00:07:50.113Z,101328.97
2022-08-25T00:10:16.422Z,101334.81
2022-08-25T00:12:42.750Z,101325.25
2022-08-25T00:15:09.328Z,101335.25
2022-08-25T00:17:35.726Z,101329.84
2022-08-25T00:20:02.209Z,101327.97
2022-08-25T00:22:29.887Z,101327.75
2022-08-25T00:24:56.174Z,101322.16
2022-08-25T00:27:22.500Z,101330.28
2022-08-25T00:29:48.822Z,101319.88
2022-08-25T00:32:15.129Z,101329.88
2022-08-25T00:34:41.474Z,101335.56
2022-08-25T00:37:08.220Z,101336.81
2022-08-25T00:39:36.438Z,101333.50
2022-08-25T00:42:02.959Z,101334.16
2022-08-25T00:44:31.937Z,101341.09
2022-08-25T00:46:59.539Z,101342.56
2022-08-25T00:49:27.545Z,101342.19
2022-08-25T00:51:55.785Z,101343.91
2022-08-25T00:54:23.878Z,101338.09
2022-08-25T00:56:51.876Z,101345.25
2022-08-25T00:59:18.843Z,101345.06
2022-08-25T01:01:45.215Z,101339.50
2022-08-25T01:04:11.600Z,101333.91
2022-08-25T01:06:40.889Z,101339.38
2022-08-25T01:09:07.328Z,101342.72
2022-08-25T01:11:33.815Z,101342.75
2022-08-25T01:14:02.783Z,101346.38
2022-08-25T01:16:29.299Z,101343.53
2022-08-25T01:18:56.644Z,101342.13
2022-08-25T01:21:26.059Z,101342.75
2022-08-25T01:23:52.694Z,101347.53
2022-08-25T01:26:21.147Z,101345.47
2022-08-25T01:28:57.597Z,101348.78
2022-08-25T01:31:24.459Z,101349.81
2022-08-25T01:33:50.990Z,101337.13
2022-08-25T01:36:17.798Z,101342.34
2022-08-25T01:38:45.470Z,101340.69
2022-08-25T01:41:11.792Z,101343.59
2022-08-25T01:43:38.665Z,101333.81
2022-08-25T01:46:05.213Z,101339.44
2022-08-25T01:48:31.550Z,101339.91
2022-08-25T01:50:57.864Z,101336.34
2022-08-25T01:53:27.103Z,101332.00
2022-08-25T01:55:54.930Z,101335.34
2022-08-25T01:58:22.028Z,101333.06
2022-08-25T02:00:49.663Z,101335.16
2022-08-25T02:03:18.702Z,101337.25
2022-08-25T02:05:45.983Z,101349.09
2022-08-25T02:08:14.752Z,101348.47
2022-08-25T02:10:41.148Z,101343.06
2022-08-25T02:13:08.882Z,101350.56
2022-08-25T02:15:35.405Z,101334.34
2022-08-25T02:18:01.802Z,101340.78
2022-08-25T02:20:28.171Z,101340.19
2022-08-25T02:22:56.990Z,101335.22
2022-08-25T02:25:23.567Z,101342.09
2022-08-25T02:27:49.888Z,101341.91
2022-08-25T02:30:18.018Z,101349.34
2022-08-25T02:32:44.347Z,101343.97
2022-08-25T02:35:11.018Z,101344.63
2022-08-25T02:37:37.359Z,101344.00
2022-08-25T02:40:04.214Z,101343.38
2022-08-25T02:42:30.570Z,101339.00
2022-08-25T02:44:56.891Z,101338.19
2022-08-25T02:47:26.800Z,101339.66
2022-08-25T02:49:53.608Z,101332.19
2022-08-25T02:52:19.919Z,101331.34
2022-08-25T02:54:46.245Z,101332.59
2022-08-25T02:57:12.573Z,101328.03
2022-08-25T02:59:38.890Z,101331.19
2022-08-25T03:02:05.359Z,101326.59
2022-08-25T03:04:33.085Z,101316.00
2022-08-25T03:06:59.416Z,101319.97
2022-08-25T03:09:26.683Z,101318.28
2022-08-25T03:11:52.988Z,101315.59
2022-08-25T03:14:19.315Z,101320.38
2022-08-25T03:16:46.311Z,101319.16
2022-08-25T03:19:12.863Z,101318.31
2022-08-25T03:21:40.523Z,101312.50
2022-08-25T03:24:06.978Z,101308.34
2022-08-25T03:26:33.283Z,101311.69
2022-08-25T03:29:00.367Z,101304.00
2022-08-25T03:31:27.182Z,101296.31
2022-08-25T03:33:53.754Z,101302.13
2022-08-25T03:36:20.070Z,101306.94
2022-08-25T03:38:47.813Z,101301.75
2022-08-25T03:41:15.117Z,101293.22
2022-08-25T03:43:41.626Z,101295.94
2022-08-25T03:46:07.988Z,101293.22
2022-08-25T03:48:34.406Z,101288.88
2022-08-25T03:51:00.738Z,101288.88
2022-08-25T03:53:27.059Z,101283.47
2022-08-25T03:55:54.751Z,101286.38
2022-08-25T03:58:21.056Z,101281.84
2022-08-25T04:00:47.415Z,101284.53
2022-08-25T04:03:13.774Z,101287.44
2022-08-25T04:05:41.829Z,101285.97
2022-08-25T04:08:08.184Z,101286.16
2022-08-25T04:10:34.618Z,101278.88
2022-08-25T04:13:02.295Z,101269.56
2022-08-25T04:15:30.281Z,101281.00
2022-08-25T04:17:56.729Z,101281.41
2022-08-25T04:20:23.065Z,101287.00
2022-08-25T04:22:49.377Z,101288.03
2022-08-25T04:25:15.709Z,101292.00
2022-08-25T04:27:42.341Z,101292.63
2022-08-25T04:30:11.135Z,101288.88
2022-08-25T04:32:37.485Z,101286.38
2022-08-25T04:35:04.075Z,101281.81
2022-08-25T04:37:30.430Z,101283.88
2022-08-25T04:39:56.771Z,101284.50
2022-08-25T04:42:23.121Z,101279.94
2022-08-25T04:44:49.435Z,101278.91
2022-08-25T04:47:17.074Z,101271.25
2022-08-25T04:49:43.382Z,101268.56
2022-08-25T04:52:14.533Z,101262.53
2022-08-25T04:54:41.149Z,101268.13
2022-08-25T04:57:07.454Z,101262.72
2022-08-25T04:59:33.796Z,101262.31
2022-08-25T05:02:00.722Z,101265.00
2022-08-25T05:04:29.093Z,101262.09
2022-08-25T05:06:55.652Z,101260.25
2022-08-25T05:09:21.994Z,101249.88
2022-08-25T05:11:48.461Z,101259.63
2022-08-25T05:14:14.963Z,101257.97
2022-08-25T05:16:42.117Z,101263.97
2022-08-25T05:19:08.486Z,101262.31
2022-08-25T05:21:36.141Z,101279.53
2022-08-25T05:24:03.204Z,101280.56
2022-08-25T05:26:30.503Z,101281.00
2022-08-25T05:28:57.729Z,101277.69
2022-08-25T05:31:25.282Z,101282.47
2022-08-25T05:33:52.286Z,101282.44
2022-08-25T05:36:18.981Z,101286.19
2022-08-25T05:38:46.955Z,101288.03
2022-08-25T05:41:14.304Z,101290.09
2022-08-25T05:43:41.345Z,101294.03
2022-08-25T05:46:08.280Z,101287.78
2022-08-25T05:48:34.934Z,101294.19
2022-08-25T05:51:02.176Z,101293.78
2022-08-25T05:53:28.962Z,101295.03
2022-08-25T05:55:59.692Z,101290.44
2022-08-25T05:58:26.803Z,101286.84
2022-08-25T06:00:53.235Z,101283.53
2022-08-25T06:03:19.703Z,101293.47
2022-08-25T06:05:46.151Z,101295.31
2022-08-25T06:08:12.483Z,101299.06
2022-08-25T06:10:38.926Z,101297.16
2022-08-25T06:13:06.655Z,101295.69
2022-08-25T06:15:32.966Z,101295.66
2022-08-25T06:18:01.756Z,101300.81
2022-08-25T06:20:29.184Z,101294.31
2022-08-25T06:22:55.626Z,101294.28
2022-08-25T06:25:22.837Z,101296.31
2022-08-25T06:27:49.242Z,101297.75
2022-08-25T06:30:21.302Z,101302.88
2022-08-25T06:32:50.880Z,101294.28
2022-08-25T06:35:18.279Z,101299.22
2022-08-25T06:37:44.867Z,101301.66
2022-08-25T06:40:11.837Z,101300.56
2022-08-25T06:42:38.238Z,101300.06
2022-08-25T06:45:05.361Z,101298.72
2022-08-25T06:47:33.023Z,101288.66
2022-08-25T06:49:59.331Z,101301.66
2022-08-25T06:52:27.913Z,101292.44
2022-08-25T06:54:55.796Z,101290.88
2022-08-25T06:57:22.094Z,101296.63
2022-08-25T06:59:48.430Z,101286.31
2022-08-25T07:02:21.914Z,101285.53
2022-08-25T07:04:49.727Z,101295.84
2022-08-25T07:07:16.039Z,101280.91
2022-08-25T07:09:42.361Z,101291.00
2022-08-25T07:12:08.700Z,101286.22
2022-08-25T07:14:35.030Z,101285.09
2022-08-25T07:17:02.779Z,101284.78
2022-08-25T07:19:36.966Z,101283.63
2022-08-25T07:22:04.776Z,101288.94
2022-08-25T07:24:31.087Z,101283.53
2022-08-25T07:26:57.406Z,101284.03
2022-08-25T07:29:31.711Z,101284.28
2022-08-25T07:31:59.455Z,101281.81
2022-08-25T07:34:26.044Z,101275.00
2022-08-25T07:36:52.526Z,101278.41
2022-08-25T07:39:22.014Z,101275.09
2022-08-25T07:41:48.840Z,101277.50
2022-08-25T07:44:18.764Z,101264.84
2022-08-25T07:46:45.152Z,101268.25
2022-08-25T07:52:05.718Z,101271.06
2022-08-25T07:54:35.284Z,101269.84
2022-08-25T07:57:01.931Z,101261.22
2022-08-25T07:59:28.241Z,101257.56
2022-08-25T08:01:54.797Z,101261.00
2022-08-25T08:04:21.122Z,101260.00
2022-08-25T08:06:47.430Z,101255.28
2022-08-25T08:09:13.768Z,101249.91
2022-08-25T08:11:45.125Z,101245.72
2022-08-25T08:14:12.093Z,101247.56
2022-08-25T08:16:38.467Z,101249.91
2022-08-25T08:19:05.438Z,101252.03
2022-08-25T08:21:33.271Z,101249.13
2022-08-25T08:24:00.560Z,101253.34
2022-08-25T08:26:36.455Z,101249.41
2022-08-25T08:29:15.043Z,101254.53
2022-08-25T08:31:41.616Z,101256.25
2022-08-25T08:34:15.214Z,101246.00
2022-08-25T08:36:41.772Z,101245.84
2022-08-25T08:39:11.597Z,101244.09
2022-08-25T08:42:09.611Z,101248.06
2022-08-25T08:44:41.182Z,101240.84
2022-08-25T08:47:11.218Z,101239.44
2022-08-25T08:49:42.071Z,101241.13
2022-08-25T08:52:10.770Z,101244.88
2022-08-25T08:54:38.047Z,101248.34
2022-08-25T08:57:10.038Z,101241.84
2022-08-25T08:59:41.571Z,101242.22
2022-08-25T09:02:13.862Z,101240.44
2022-08-25T09:04:43.327Z,101243.22
2022-08-25T09:07:11.495Z,101242.25
2022-08-25T09:09:41.007Z,101242.09
2022-08-25T09:12:11.328Z,101242.53
2022-08-25T09:14:44.706Z,101240.16
2022-08-25T09:17:14.674Z,101240.53
2022-08-25T09:19:56.052Z,101235.66
2022-08-25T09:22:35.242Z,101242.34
2022-08-25T09:25:08.458Z,101236.38
2022-08-25T09:27:38.174Z,101242.97
2022-08-25T09:30:10.081Z,101237.59
2022-08-25T09:32:39.238Z,101240.34
2022-08-25T09:35:07.503Z,101244.78
2022-08-25T09:37:33.824Z,101239.69
2022-08-25T09:40:00.285Z,101240.81
2022-08-25T09:42:41.565Z,101236.13
2022-08-25T09:45:11.793Z,101241.66
2022-08-25T09:47:42.173Z,101241.75
2022-08-25T09:50:14.234Z,101240.69
2022-08-25T09:52:45.064Z,101245.38
2022-08-25T09:55:29.679Z,101233.63
2022-08-25T09:57:58.846Z,101232.00
2022-08-25T10:00:28.171Z,101226.00
2022-08-25T10:03:05.643Z,101221.06
2022-08-25T10:05:32.411Z,101215.41
2022-08-25T10:08:00.289Z,101212.91
2022-08-25T10:10:28.603Z,101211.28
2022-08-25T10:12:59.392Z,101212.38
2022-08-25T10:15:29.758Z,101207.97
2022-08-25T10:17:57.535Z,101195.69
2022-08-25T10:20:26.373Z,101200.34
2022-08-25T10:23:09.686Z,101198.13
2022-08-25T10:25:40.753Z,101198.13
2022-08-25T10:28:10.588Z,101188.84
2022-08-25T10:30:45.115Z,101189.63
2022-08-25T10:33:15.304Z,101189.84
2022-08-25T10:35:47.964Z,101170.63
2022-08-25T10:38:22.913Z,101175.28
2022-08-25T10:40:57.084Z,101170.59
2022-08-25T10:43:30.604Z,101166.75
2022-08-25T10:46:04.537Z,101162.38
2022-08-25T10:48:51.630Z,101164.28
2022-08-25T10:51:36.139Z,101153.50
2022-08-25T10:54:06.796Z,101150.66
2022-08-25T10:56:34.665Z,101150.81
2022-08-25T10:59:24.472Z,101147.72
2022-08-25T11:02:02.493Z,101139.97
2022-08-25T11:04:32.617Z,101148.00
2022-08-25T11:07:05.623Z,101147.56
2022-08-25T11:09:36.401Z,101136.69
2022-08-25T11:12:07.395Z,101140.88
2022-08-25T11:14:36.715Z,101133.47
2022-08-25T11:17:06.174Z,101134.75
2022-08-25T11:19:35.244Z,101132.44
2022-08-25T11:22:05.104Z,101126.31
2022-08-25T11:24:51.770Z,101122.31
2022-08-25T11:27:21.623Z,101123.22
2022-08-25T11:29:58.025Z,101118.69
2022-08-25T11:32:25.890Z,101117.09
2022-08-25T11:34:52.757Z,101124.06
2022-08-25T11:37:21.112Z,101120.56
2022-08-25T11:40:02.519Z,101114.63
2022-08-25T11:42:35.436Z,101105.56
2022-08-25T11:45:07.183Z,101101.38
2022-08-25T11:47:41.763Z,101095.81
2022-08-25T11:50:09.514Z,101093.81
2022-08-25T11:52:44.157Z,101095.94
2022-08-25T11:55:11.872Z,101097.00
2022-08-25T11:57:39.118Z,101098.03
2022-08-25T12:00:06.849Z,101093.56
2022-08-25T12:02:39.174Z,101097.94
2022-08-25T12:05:08.116Z,101086.22
2022-08-25T12:07:58.491Z,101086.81
2022-08-25T12:10:25.719Z,101091.72
2022-08-25T12:13:23.122Z,101092.22
2022-08-25T12:16:00.370Z,101089.47
2022-08-25T12:18:45.747Z,101080.38
2022-08-25T12:21:13.720Z,101091.63
2022-08-25T12:23:44.945Z,101087.75
2022-08-25T12:26:17.583Z,101083.28
2022-08-25T12:28:59.948Z,101082.66
2022-08-25T12:31:45.347Z,101085.34
2022-08-25T12:34:24.324Z,101083.41
2022-08-25T12:36:57.673Z,101081.78
2022-08-25T12:39:29.948Z,101085.06
2022-08-25T12:41:59.840Z,101083.66
2022-08-25T12:44:41.003Z,101080.91
2022-08-25T12:47:11.882Z,101076.22
2022-08-25T12:49:39.542Z,101081.72
2022-08-25T12:52:06.990Z,101079.25
2022-08-25T12:54:47.605Z,101078.44
2022-08-25T12:57:24.993Z,101070.47
2022-08-25T12:59:57.059Z,101067.31
2022-08-25T13:02:51.555Z,101064.84
2022-08-25T13:05:35.327Z,101064.84
2022-08-25T13:08:15.496Z,101054.44
2022-08-25T13:10:45.271Z,101054.66
2022-08-25T13:13:16.266Z,101055.25
2022-08-25T13:15:44.556Z,101047.16
2022-08-25T13:18:18.936Z,101049.47
2022-08-25T13:20:47.119Z,101045.81
2022-08-25T13:23:16.533Z,101039.28
2022-08-25T13:25:47.440Z,101039.66
2022-08-25T13:28:20.756Z,101034.06
2022-08-25T13:30:55.455Z,101026.63
2022-08-25T13:33:22.583Z,101019.06
2022-08-25T13:35:51.110Z,101022.56
2022-08-25T13:38:19.284Z,101024.78
2022-08-25T13:40:45.745Z,101020.25
2022-08-25T13:43:13.569Z,101012.44
2022-08-25T13:45:41.661Z,101018.53
2022-08-25T13:48:22.969Z,101019.38
2022-08-25T13:51:06.044Z,101021.78
2022-08-25T13:53:35.218Z,101013.69
2022-08-25T13:56:02.536Z,101007.78
2022-08-25T13:58:38.709Z,101016.63
2022-08-25T14:01:19.926Z,101024.13
2022-08-25T14:04:14.554Z,101006.59
2022-08-25T14:06:42.471Z,101011.78
2022-08-25T14:09:13.126Z,101009.00
2022-08-25T14:11:41.895Z,101000.97
2022-08-25T14:14:09.135Z,101001.81
2022-08-25T14:16:38.322Z,101003.03
2022-08-25T14:19:19.350Z,100997.28
2022-08-25T14:21:47.811Z,101002.78
2022-08-25T14:24:16.714Z,101001.66
2022-08-25T14:26:54.552Z,100998.41
2022-08-25T14:29:21.187Z,100994.78
2022-08-25T14:31:47.765Z,100988.59
2022-08-25T14:34:15.274Z,100989.47
2022-08-25T14:36:41.803Z,100985.31
2022-08-25T14:39:12.531Z,100991.63
2022-08-25T14:41:39.991Z,100988.34
2022-08-25T14:44:07.205Z,100990.34
2022-08-25T14:46:34.529Z,100980.47
2022-08-25T14:49:02.315Z,100986.19
2022-08-25T14:51:30.134Z,100981.25
2022-08-25T14:54:05.203Z,100984.50
2022-08-25T14:56:33.265Z,100976.78
2022-08-25T14:58:59.891Z,100976.50
2022-08-25T15:01:29.156Z,100982.81
2022-08-25T15:03:58.328Z,100981.41
2022-08-25T15:06:24.709Z,100972.41
2022-08-25T15:08:51.026Z,100976.63
2022-08-25T15:11:17.501Z,100973.88
2022-08-25T15:13:49.240Z,100978.28
2022-08-25T15:16:20.918Z,100975.00
2022-08-25T15:18:47.346Z,100968.75
2022-08-25T15:21:13.738Z,100965.38
2022-08-25T15:23:41.359Z,100968.75
2022-08-25T15:26:11.671Z,100963.81
2022-08-25T15:28:39.195Z,100966.59
2022-08-25T15:31:06.988Z,100960.06
2022-08-25T15:33:34.660Z,100958.16
2022-08-25T15:36:00.997Z,100958.31
2022-08-25T15:38:29.079Z,100963.00
2022-08-25T15:40:55.383Z,100956.34
2022-08-25T15:43:21.707Z,100954.41
2022-08-25T15:45:49.374Z,100957.16
2022-08-25T15:48:18.667Z,100954.13
2022-08-25T15:50:44.986Z,100954.41
2022-08-25T15:53:11.310Z,100956.13
2022-08-25T15:55:38.575Z,100949.09
2022-08-25T15:58:05.860Z,100956.53
2022-08-25T16:00:35.161Z,100951.13
2022-08-25T16:03:01.943Z,100952.88
2022-08-25T16:05:30.516Z,100950.16
2022-08-25T16:07:56.826Z,100951.56
2022-08-25T16:10:23.525Z,100945.28
2022-08-25T16:12:49.870Z,100951.81
2022-08-25T16:15:16.192Z,100945.19
2022-08-25T16:17:43.710Z,100943.75
2022-08-25T16:20:13.641Z,100947.31
2022-08-25T16:22:41.708Z,100943.25
2022-08-25T16:25:08.463Z,100946.84
2022-08-25T16:27:38.574Z,100936.22
2022-08-25T16:30:06.158Z,100941.75
2022-08-25T16:32:32.471Z,100938.81
2022-08-25T16:34:58.814Z,100942.69
2022-08-25T16:37:25.119Z,100937.50
2022-08-25T16:39:53.942Z,100930.94
2022-08-25T16:42:21.363Z,100930.66
2022-08-25T16:44:47.918Z,100933.19
2022-08-25T16:47:20.495Z,100931.28
2022-08-25T16:49:53.246Z,100936.22
2022-08-25T16:52:20.020Z,100934.88
2022-08-25T16:54:46.970Z,100941.09
2022-08-25T16:57:15.952Z,100936.69
2022-08-25T16:59:42.267Z,100932.25
2022-08-25T17:02:10.204Z,100933.06
2022-08-25T17:04:36.526Z,100933.06
2022-08-25T17:07:03.875Z,100932.25
2022-08-25T17:09:31.404Z,100928.41
2022-08-25T17:11:57.707Z,100927.66
2022-08-25T17:14:25.463Z,100925.19
2022-08-25T17:16:51.926Z,100925.25
2022-08-25T17:19:18.757Z,100930.53
2022-08-25T17:21:45.360Z,100933.06
2022-08-25T17:24:12.327Z,100924.88
2022-08-25T17:26:39.811Z,100923.84
2022-08-25T17:29:06.818Z,100926.38
2022-08-25T17:31:36.659Z,100919.81
2022-08-25T17:34:03.007Z,100925.06
2022-08-25T17:36:29.651Z,100925.09
2022-08-25T17:38:56.996Z,100925.69
2022-08-25T17:41:23.579Z,100918.91
2022-08-25T17:43:49.996Z,100916.44
2022-08-25T17:46:17.719Z,100931.53
2022-08-25T17:48:45.962Z,100928.53
2022-08-25T17:51:12.491Z,100924.47
2022-08-25T17:53:38.934Z,100924.47
2022-08-25T17:56:06.407Z,100927.22
2022-08-25T17:58:32.770Z,100913.03
2022-08-25T18:00:59.352Z,100920.41
2022-08-25T18:03:25.747Z,100915.19
2022-08-25T18:05:53.419Z,100921.25
2022-08-25T18:08:19.759Z,100921.78
2022-08-25T18:10:58.454Z,100920.69
2022-08-25T18:13:24.786Z,100919.59
2022-08-25T18:15:51.136Z,100926.09
2022-08-25T18:18:17.595Z,100923.31
2022-08-25T18:20:44.492Z,100920.56
2022-08-25T18:23:12.200Z,100927.34
2022-08-25T18:25:41.829Z,100923.22
2022-08-25T18:28:09.344Z,100925.91
2022-08-25T18:30:36.151Z,100929.38
2022-08-25T18:33:02.725Z,100931.25
2022-08-25T18:35:29.455Z,100937.78
2022-08-25T18:37:55.784Z,100929.84
2022-08-25T18:40:24.153Z,100940.72
2022-08-25T18:42:51.191Z,100936.56
2022-08-25T18:45:18.215Z,100941.69
2022-08-25T18:47:44.564Z,100940.00
2022-08-25T18:50:10.876Z,100937.44
2022-08-25T18:52:37.265Z,100945.78
2022-08-25T18:55:03.947Z,100938.88
2022-08-25T18:57:32.379Z,100944.25
2022-08-25T18:59:58.871Z,100953.41
2022-08-25T19:02:26.196Z,100951.16
2022-08-25T19:04:52.563Z,100959.09
2022-08-25T19:07:19.396Z,100960.00
2022-08-25T19:09:46.094Z,100957.16
2022-08-25T19:12:22.701Z,100969.06
2022-08-25T19:14:50.652Z,100968.50
2022-08-25T19:17:16.987Z,100962.44
2022-08-25T19:19:43.325Z,100964.50
2022-08-25T19:22:38.072Z,100965.50
2022-08-25T19:24:56.598Z,100963.97
2022-08-25T19:27:23.002Z,100971.50
2022-08-25T19:29:50.723Z,100975.44
2022-08-25T19:32:17.114Z,100979.16
2022-08-25T19:34:46.718Z,100987.25
2022-08-25T19:37:17.836Z,100988.00
2022-08-25T19:39:52.983Z,100984.75
2022-08-25T19:42:34.867Z,100993.31
2022-08-25T19:45:03.871Z,100995.00
2022-08-25T19:47:30.447Z,101003.16
2022-08-25T19:49:58.358Z,101001.53
2022-08-25T19:52:24.665Z,101003.41
2022-08-25T19:54:53.289Z,101008.53
2022-08-25T19:57:28.394Z,101008.22
2022-08-25T20:00:10.377Z,101009.88
2022-08-25T20:02:36.724Z,101013.09
2022-08-25T20:05:03.579Z,101007.09
2022-08-25T20:07:31.083Z,101005.13
2022-08-25T20:09:58.372Z,101016.31
2022-08-25T20:12:24.887Z,101023.66
2022-08-25T20:14:52.495Z,101031.56
2022-08-25T20:17:24.576Z,101028.53
2022-08-25T20:19:53.156Z,101036.25
2022-08-25T20:22:22.516Z,101028.31
2022-08-25T20:24:56.067Z,101038.50
2022-08-25T20:27:26.154Z,101037.59
2022-08-25T20:29:52.774Z,101045.34
2022-08-25T20:32:20.603Z,101034.53
2022-08-25T20:34:48.505Z,101039.22
2022-08-25T20:37:16.498Z,101048.53
2022-08-25T20:39:42.816Z,101045.66
2022-08-25T20:42:09.128Z,101050.75
2022-08-25T20:44:40.053Z,101051.81
2022-08-25T20:47:09.054Z,101058.59
2022-08-25T20:49:37.781Z,101058.44
2022-08-25T20:52:05.190Z,101069.50
2022-08-25T20:54:31.614Z,101070.63
2022-08-25T20:56:58.881Z,101072.84
2022-08-25T20:59:26.170Z,101074.03
2022-08-25T21:01:53.125Z,101083.19
2022-08-25T21:04:20.798Z,101079.66
2022-08-25T21:06:49.377Z,101079.94
2022-08-25T21:09:16.423Z,101077.09
2022-08-25T21:11:43.669Z,101075.84
2022-08-25T21:14:11.387Z,101074.34
2022-08-25T21:16:38.053Z,101074.13
2022-08-25T21:19:05.034Z,101078.97
2022-08-25T21:21:37.314Z,101078.28
2022-08-25T21:24:08.561Z,101082.19
2022-08-25T21:26:37.027Z,101091.84
2022-08-25T21:29:15.286Z,101085.69
2022-08-25T21:31:41.699Z,101096.09
2022-08-25T21:34:08.059Z,101097.97
2022-08-25T21:36:34.846Z,101100.69
2022-08-25T21:39:02.078Z,101109.06
2022-08-25T21:41:33.779Z,101107.75
2022-08-25T21:44:01.250Z,101122.81
2022-08-25T21:46:28.911Z,101120.88
2022-08-25T21:48:57.751Z,101112.72
2022-08-25T21:51:27.599Z,101107.44
2022-08-25T21:53:54.418Z,101113.66
2022-08-25T21:56:20.740Z,101104.38
2022-08-25T21:58:48.984Z,101111.66
2022-08-25T22:01:16.886Z,101112.56
2022-08-25T22:03:47.127Z,101120.66
2022-08-25T22:06:14.301Z,101124.34
2022-08-25T22:08:43.088Z,101122.06
2022-08-25T22:11:09.855Z,101125.38
2022-08-25T22:13:37.420Z,101126.09
2022-08-25T22:16:09.051Z,101117.16
2022-08-25T22:18:35.571Z,101110.63
2022-08-25T22:21:07.192Z,101121.47
2022-08-25T22:23:44.187Z,101110.72
2022-08-25T22:26:11.746Z,101114.56
2022-08-25T22:28:38.071Z,101115.84
2022-08-25T22:31:04.950Z,101114.03
2022-08-25T22:33:35.746Z,101110.22
2022-08-25T22:36:02.475Z,101111.56
2022-08-25T22:38:28.775Z,101122.16
2022-08-25T22:41:00.183Z,101122.31
2022-08-25T22:43:26.544Z,101120.66
2022-08-25T22:45:59.425Z,101118.72
2022-08-25T22:48:25.760Z,101120.66
2022-08-25T22:50:53.506Z,101121.19
2022-08-25T22:53:19.827Z,101128.03
2022-08-25T22:55:46.134Z,101132.41
2022-08-25T22:58:12.786Z,101139.00
2022-08-25T23:00:39.302Z,101137.94
2022-08-25T23:03:06.788Z,101134.97
2022-08-25T23:05:34.083Z,101143.13
2022-08-25T23:08:01.760Z,101138.13
2022-08-25T23:10:28.083Z,101136.47
2022-08-25T23:12:54.380Z,101146.38
2022-08-25T23:15:20.775Z,101137.38
2022-08-25T23:17:47.096Z,101142.31
2022-08-25T23:20:14.348Z,101135.38
2022-08-25T23:22:40.689Z,101138.75
2022-08-25T23:25:09.955Z,101147.56
2022-08-25T23:27:36.287Z,101145.72
2022-08-25T23:30:02.602Z,101142.88
2022-08-25T23:32:29.475Z,101138.94
2022-08-25T23:34:55.770Z,101147.25
2022-08-25T23:37:22.100Z,101152.97
2022-08-25T23:39:50.047Z,101149.22
2022-08-25T23:42:17.927Z,101137.25
2022-08-25T23:44:44.638Z,101146.53
2022-08-25T23:47:12.051Z,101144.75
2022-08-25T23:49:38.608Z,101137.59
2022-08-25T23:52:05.241Z,101136.50
2022-08-25T23:54:31.821Z,101140.09
2022-08-25T23:56:58.246Z,101136.94
2022-08-25T23:59:25.906Z,101146.50
